Time;durP1;ratioP1;P1;durP2;ratioP2;P2;SDS_P1;SDS_P2;PMS_P1;PMS_P2;Temp;Humidity;BMP_temperature;BMP_pressure;BME280_temperature;BME280_humidity;BME280_pressure;Samples;Min_cycle;Max_cycle;Signal;HPM_P1;HPM_P2
2023/12/15 00:00:13;;;;;;;23.65;12.35;;;;;;;8.50;100.00;97360.34;5136403;27;20091;-77
2023/12/15 00:02:39;;;;;;;20.98;11.77;;;;;;;8.49;100.00;97369.25;5154301;27;20037;-78
2023/12/15 00:05:05;;;;;;;25.55;12.88;;;;;;;8.49;100.00;97365.75;5134810;27;20018;-77
2023/12/15 00:07:30;;;;;;;26.10;13.55;;;;;;;8.53;100.00;97362.81;5133296;27;20080;-77
2023/12/15 00:09:56;;;;;;;22.40;12.43;;;;;;;8.56;100.00;97356.44;5133457;27;20062;-77
2023/12/15 00:12:21;;;;;;;24.90;12.50;;;;;;;8.64;100.00;97375.56;5153799;27;20406;-77
2023/12/15 00:14:47;;;;;;;27.40;14.13;;;;;;;8.62;100.00;97372.09;5154098;27;20110;-76
2023/12/15 00:17:12;;;;;;;25.98;14.18;;;;;;;8.61;100.00;97378.41;5135156;27;20095;-77
2023/12/15 00:19:38;;;;;;;30.98;17.88;;;;;;;8.58;100.00;97390.06;5135263;27;20122;-77
2023/12/15 00:22:04;;;;;;;32.80;16.83;;;;;;;8.55;100.00;97395.56;5153482;27;20030;-76
2023/12/15 00:24:29;;;;;;;31.70;17.85;;;;;;;8.53;100.00;97400.16;5117876;27;20085;-76
2023/12/15 00:26:55;;;;;;;33.13;17.40;;;;;;;8.49;100.00;97408.41;5117739;27;20029;-76
2023/12/15 00:29:22;;;;;;;34.47;17.65;;;;;;;8.48;100.00;97396.03;5153609;27;20023;-76
2023/12/15 00:31:47;;;;;;;26.30;15.20;;;;;;;8.45;100.00;97399.72;5117972;27;20031;-76
2023/12/15 00:34:13;;;;;;;31.70;15.93;;;;;;;8.44;100.00;97397.13;5132035;27;20015;-77
2023/12/15 00:36:38;;;;;;;26.73;14.63;;;;;;;8.51;100.00;97393.19;5153502;27;20393;-77
2023/12/15 00:39:04;;;;;;;31.63;14.52;;;;;;;8.52;100.00;97398.41;5152137;27;20015;-77
2023/12/15 00:41:29;;;;;;;24.90;14.98;;;;;;;8.54;100.00;97401.00;5117614;27;20026;-76
2023/12/15 00:43:55;;;;;;;23.42;13.80;;;;;;;8.51;100.00;97396.72;5134813;27;20023;-76
2023/12/15 00:46:21;;;;;;;23.05;13.43;;;;;;;8.57;100.00;97406.16;5153025;27;20512;-76
2023/12/15 00:48:46;;;;;;;24.77;13.23;;;;;;;8.58;100.00;97403.41;5152969;27;20035;-76
2023/12/15 00:51:12;;;;;;;22.17;13.13;;;;;;;8.60;100.00;97406.00;5153005;27;20033;-76
2023/12/15 00:53:37;;;;;;;20.33;11.85;;;;;;;8.60;100.00;97411.31;5153012;27;20023;-76
2023/12/15 00:56:03;;;;;;;21.88;13.63;;;;;;;8.59;100.00;97410.47;5134543;27;20509;-75
2023/12/15 00:58:29;;;;;;;21.33;12.15;;;;;;;8.53;100.00;97417.94;5117235;27;20083;-76
2023/12/15 01:00:54;;;;;;;23.38;12.65;;;;;;;8.53;100.00;97425.94;5117224;27;20022;-75
2023/12/15 01:03:20;;;;;;;27.40;14.57;;;;;;;8.54;100.00;97430.31;5134295;27;20075;-77
2023/12/15 01:05:46;;;;;;;31.80;18.05;;;;;;;8.58;100.00;97430.06;5152695;27;20039;-77
2023/12/15 01:08:11;;;;;;;33.53;19.05;;;;;;;8.66;100.00;97438.50;5134083;27;20026;-76
2023/12/15 01:10:37;;;;;;;33.65;19.33;;;;;;;8.65;100.00;97431.44;5134216;27;20405;-76
2023/12/15 01:13:03;;;;;;;32.13;18.20;;;;;;;8.70;100.00;97433.88;5152836;27;20026;-77
2023/12/15 01:15:29;;;;;;;37.08;19.90;;;;;;;8.67;100.00;97428.72;5116837;27;20022;-76
2023/12/15 01:17:54;;;;;;;36.67;20.08;;;;;;;8.57;100.00;97439.03;5152514;27;20026;-78
2023/12/15 01:20:20;;;;;;;32.55;19.52;;;;;;;8.56;100.00;97444.41;5152581;27;20038;-76
2023/12/15 01:22:46;;;;;;;31.02;18.48;;;;;;;8.57;100.00;97447.03;5152449;27;20031;-76
2023/12/15 01:25:11;;;;;;;22.98;11.70;;;;;;;8.53;100.00;97449.94;5133882;27;20030;-76
2023/12/15 01:27:37;;;;;;;13.52;8.25;;;;;;;8.49;100.00;97446.56;5116826;27;20018;-76
2023/12/15 01:30:04;;;;;;;9.52;5.53;;;;;;;8.42;100.00;97447.88;5152350;27;20454;-77
2023/12/15 01:32:30;;;;;;;6.45;4.10;;;;;;;8.32;100.00;97454.63;5130914;27;20402;-76
2023/12/15 01:34:55;;;;;;;7.50;3.88;;;;;;;8.21;100.00;97450.81;5131556;27;20031;-77
2023/12/15 01:37:21;;;;;;;6.72;3.70;;;;;;;8.13;100.00;97457.41;5131510;27;20479;-77
2023/12/15 01:39:46;;;;;;;5.82;3.08;;;;;;;8.10;100.00;97451.38;5145153;27;20022;-77
2023/12/15 01:42:12;;;;;;;5.93;3.00;;;;;;;8.11;100.00;97467.28;5152248;27;20383;-77
2023/12/15 01:44:39;;;;;;;5.13;3.00;;;;;;;8.09;100.00;97466.50;5152138;27;20025;-77
2023/12/15 01:47:05;;;;;;;4.85;2.88;;;;;;;8.12;100.00;97468.97;5133730;27;20031;-77
2023/12/15 01:49:31;;;;;;;5.80;2.97;;;;;;;8.18;100.00;97481.97;5151650;27;20015;-77
2023/12/15 01:51:57;;;;;;;3.58;2.40;;;;;;;8.08;100.00;97478.09;5114827;27;20435;-76
2023/12/15 01:54:22;;;;;;;3.22;2.00;;;;;;;8.07;100.00;97478.16;5129957;27;20033;-76
2023/12/15 01:56:48;;;;;;;2.42;1.80;;;;;;;8.10;100.00;97486.00;5113136;27;20034;-76
2023/12/15 01:59:13;;;;;;;3.92;1.67;;;;;;;8.05;100.00;97475.59;5133692;27;20098;-76
2023/12/15 02:01:39;;;;;;;4.53;2.40;;;;;;;8.04;100.00;97465.88;5133341;27;20481;-76
2023/12/15 02:04:05;;;;;;;4.20;2.20;;;;;;;7.98;100.00;97476.88;5133352;27;20045;-76
2023/12/15 02:06:30;;;;;;;5.50;2.20;;;;;;;7.98;100.00;97476.88;5114160;27;20050;-76
2023/12/15 02:08:56;;;;;;;4.22;2.20;;;;;;;7.88;100.00;97475.63;5152053;27;20474;-77
2023/12/15 02:11:21;;;;;;;4.10;2.05;;;;;;;7.86;100.00;97479.31;5133535;27;20033;-76
2023/12/15 02:13:47;;;;;;;4.15;1.70;;;;;;;7.89;100.00;97482.66;5151847;27;20504;-76
2023/12/15 02:16:13;;;;;;;4.75;1.95;;;;;;;7.83;100.00;97480.34;5133236;27;20049;-76
2023/12/15 02:18:38;;;;;;;5.93;2.47;;;;;;;7.78;100.00;97469.06;5151567;27;20018;-75
2023/12/15 02:21:04;;;;;;;4.35;2.60;;;;;;;7.87;100.00;97481.91;5151619;27;20046;-76
2023/12/15 02:23:30;;;;;;;3.95;2.60;;;;;;;7.86;100.00;97488.16;5132967;27;20018;-75
2023/12/15 02:25:55;;;;;;;7.80;2.60;;;;;;;7.84;100.00;97482.06;5133237;27;20402;-75
2023/12/15 02:28:21;;;;;;;6.25;3.00;;;;;;;7.84;100.00;97483.88;5133391;27;20027;-77
2023/12/15 02:30:47;;;;;;;6.30;3.25;;;;;;;7.85;100.00;97481.09;5115851;27;20583;-75
2023/12/15 02:33:13;;;;;;;5.05;3.00;;;;;;;7.95;100.00;97486.81;5133168;27;20050;-76
2023/12/15 02:35:40;;;;;;;6.10;2.88;;;;;;;8.00;100.00;97496.28;5133150;27;20501;-76
2023/12/15 02:38:09;;;;;;;6.22;3.13;;;;;;;7.99;100.00;97502.56;5110205;28;20494;-76
2023/12/15 02:40:38;;;;;;;4.03;2.60;;;;;;;7.91;100.00;97496.75;5113944;27;20117;-76
2023/12/15 02:43:03;;;;;;;5.82;3.00;;;;;;;7.89;100.00;97503.09;5151346;27;20023;-76
2023/12/15 02:45:29;;;;;;;3.00;2.35;;;;;;;7.86;100.00;97493.47;5151347;27;20031;-77
2023/12/15 02:47:55;;;;;;;2.78;1.50;;;;;;;7.79;100.00;97497.41;5116007;27;20062;-76
2023/12/15 02:50:20;;;;;;;2.55;1.40;;;;;;;7.79;100.00;97492.06;5151430;27;20031;-76
2023/12/15 02:52:47;;;;;;;2.58;1.08;;;;;;;7.73;100.00;97486.19;5151555;27;20041;-76
2023/12/15 02:55:13;;;;;;;1.63;1.13;;;;;;;7.67;100.00;97490.03;5133241;27;20044;-76
2023/12/15 02:57:39;;;;;;;5.50;1.30;;;;;;;7.64;100.00;97492.88;5111449;27;20038;-76
2023/12/15 03:00:06;;;;;;;3.80;1.50;;;;;;;7.70;100.00;97503.19;5132786;27;20026;-76
2023/12/15 03:02:32;;;;;;;3.13;2.10;;;;;;;7.74;100.00;97504.78;5152953;27;20550;-75
2023/12/15 03:04:57;;;;;;;4.53;2.47;;;;;;;7.72;100.00;97503.97;5136754;27;20022;-75
2023/12/15 03:07:23;;;;;;;8.38;2.78;;;;;;;7.77;100.00;97509.94;5119403;27;20117;-76
2023/12/15 03:09:48;;;;;;;6.97;3.60;;;;;;;7.78;100.00;97508.16;5136444;27;20033;-76
2023/12/15 03:12:14;;;;;;;6.03;2.85;;;;;;;7.80;100.00;97517.78;5119286;27;20034;-76
2023/12/15 03:14:40;;;;;;;7.85;3.92;;;;;;;7.81;100.00;97524.81;5136519;27;20026;-76
2023/12/15 03:17:05;;;;;;;12.43;6.65;;;;;;;7.86;100.00;97525.44;5136192;27;20027;-76
2023/12/15 03:19:31;;;;;;;17.83;9.55;;;;;;;7.94;100.00;97527.69;5136664;27;20054;-77
2023/12/15 03:21:56;;;;;;;12.80;6.82;;;;;;;7.98;100.00;97530.13;5154806;27;20083;-76
2023/12/15 03:24:22;;;;;;;13.63;8.02;;;;;;;8.02;100.00;97544.16;5154661;27;20076;-77
2023/12/15 03:26:47;;;;;;;15.00;8.55;;;;;;;8.08;100.00;97541.16;5144221;27;20031;-76
2023/12/15 03:29:13;;;;;;;13.05;7.38;;;;;;;8.10;100.00;97545.47;5106981;27;20472;-76
2023/12/15 03:31:41;;;;;;;16.85;8.98;;;;;;;8.05;100.00;97534.19;5132935;27;20024;-76
2023/12/15 03:34:07;;;;;;;25.70;12.57;;;;;;;8.08;100.00;97546.50;5154742;27;20022;-76
2023/12/15 03:36:38;;;;;;;23.63;11.43;;;;;;;8.15;100.00;97548.75;5135995;27;20037;-76
2023/12/15 03:39:05;;;;;;;15.00;8.20;;;;;;;8.15;100.00;97546.06;5119675;27;20117;-76
2023/12/15 03:41:31;;;;;;;13.38;6.55;;;;;;;8.12;100.00;97551.56;5118894;27;20022;-76
2023/12/15 03:43:57;;;;;;;9.98;6.07;;;;;;;8.15;100.00;97554.06;5154119;27;20074;-75
2023/12/15 03:46:23;;;;;;;10.18;6.35;;;;;;;8.07;100.00;97561.63;5135855;27;20406;-76
2023/12/15 03:48:48;;;;;;;12.02;6.20;;;;;;;7.93;100.00;97558.81;5154188;27;20042;-76
2023/12/15 03:51:14;;;;;;;18.35;10.35;;;;;;;7.92;100.00;97559.75;5135853;27;20463;-76
2023/12/15 03:53:39;;;;;;;28.42;15.23;;;;;;;7.88;100.00;97559.97;5135753;27;20082;-76
2023/12/15 03:56:05;;;;;;;19.80;11.27;;;;;;;7.94;100.00;97570.28;5135469;27;20030;-76
2023/12/15 03:58:31;;;;;;;20.55;11.13;;;;;;;7.98;100.00;97572.75;5118266;27;20050;-76
2023/12/15 04:00:57;;;;;;;15.82;8.98;;;;;;;7.98;100.00;97569.22;5118247;27;20030;-75
2023/12/15 04:03:23;;;;;;;16.83;9.68;;;;;;;7.91;100.00;97571.31;5118259;27;20035;-76
2023/12/15 04:05:49;;;;;;;20.10;10.70;;;;;;;7.86;100.00;97581.34;5144782;27;20069;-76
2023/12/15 04:08:14;;;;;;;22.90;12.52;;;;;;;7.84;100.00;97577.91;5133331;27;20102;-76
2023/12/15 04:10:40;;;;;;;21.92;11.63;;;;;;;7.78;100.00;97586.22;5097426;27;20398;-76
2023/12/15 04:13:06;;;;;;;19.08;9.52;;;;;;;7.76;100.00;97590.75;5131964;27;20023;-76
2023/12/15 04:15:31;;;;;;;21.58;10.85;;;;;;;7.85;100.00;97594.72;5132855;27;20021;-76
2023/12/15 04:17:57;;;;;;;19.80;11.15;;;;;;;7.81;100.00;97591.38;5097532;27;20121;-76
2023/12/15 04:20:22;;;;;;;17.60;9.75;;;;;;;7.84;100.00;97596.56;5132799;27;20027;-76
2023/12/15 04:22:48;;;;;;;14.82;8.38;;;;;;;7.83;100.00;97594.81;5093425;28;20085;-75
2023/12/15 04:25:14;;;;;;;12.02;7.07;;;;;;;7.84;100.00;97599.22;5114241;27;20031;-76
2023/12/15 04:27:40;;;;;;;20.92;8.55;;;;;;;7.84;100.00;97601.88;5114503;27;20440;-76
2023/12/15 04:30:06;;;;;;;15.02;7.38;;;;;;;7.84;100.00;97599.22;5097293;27;20048;-78
2023/12/15 04:32:31;;;;;;;16.10;7.13;;;;;;;7.93;100.00;97605.88;5094388;27;20038;-77
2023/12/15 04:34:57;;;;;;;14.70;7.82;;;;;;;7.99;100.00;97603.78;5113745;27;20122;-77
2023/12/15 04:37:22;;;;;;;17.63;9.45;;;;;;;7.93;100.00;97601.41;5132780;27;20027;-77
2023/12/15 04:39:48;;;;;;;20.73;10.52;;;;;;;7.90;100.00;97596.25;5097293;27;20049;-77
2023/12/15 04:42:13;;;;;;;23.98;11.93;;;;;;;7.84;100.00;97591.22;5132377;27;20061;-77
2023/12/15 04:44:39;;;;;;;20.73;9.98;;;;;;;7.84;100.00;97591.22;5088243;27;20027;-76
2023/12/15 04:47:05;;;;;;;19.90;10.90;;;;;;;7.93;100.00;97598.75;5114086;27;20034;-76
2023/12/15 04:49:30;;;;;;;20.15;10.32;;;;;;;7.95;100.00;97602.19;5097096;27;20501;-76
2023/12/15 04:51:57;;;;;;;22.48;11.32;;;;;;;7.97;100.00;97613.63;5113918;27;20035;-76
2023/12/15 04:54:22;;;;;;;17.30;10.65;;;;;;;8.01;100.00;97620.53;5115535;27;20387;-76
2023/12/15 04:56:48;;;;;;;16.45;9.80;;;;;;;7.90;100.00;97628.22;5114477;27;20110;-81
2023/12/15 04:59:13;;;;;;;22.80;10.18;;;;;;;7.97;100.00;97634.06;5097909;27;20095;-80
2023/12/15 05:01:39;;;;;;;21.77;11.57;;;;;;;7.97;100.00;97634.94;5097600;27;20023;-80
2023/12/15 05:04:04;;;;;;;25.52;12.90;;;;;;;7.95;100.00;97642.16;5097037;27;20455;-80
2023/12/15 05:06:31;;;;;;;25.35;13.75;;;;;;;7.91;100.00;97645.88;5098482;27;20134;-80
2023/12/15 05:08:56;;;;;;;22.75;12.35;;;;;;;7.88;100.00;97645.16;5118326;27;20496;-80
2023/12/15 05:11:22;;;;;;;21.02;11.93;;;;;;;8.00;100.00;97665.88;5117693;27;20026;-79
2023/12/15 05:13:48;;;;;;;22.50;11.38;;;;;;;8.04;100.00;97665.66;5117921;27;20023;-79
2023/12/15 05:16:14;;;;;;;23.10;12.30;;;;;;;8.04;100.00;97664.78;5117489;27;20558;-82
2023/12/15 05:18:39;;;;;;;161.73;88.10;;;;;;;7.96;100.00;97665.19;5118066;27;20026;-81
2023/12/15 05:21:05;;;;;;;23.30;12.80;;;;;;;8.04;100.00;97670.13;5117655;27;20062;-82
2023/12/15 05:23:31;;;;;;;21.00;11.90;;;;;;;7.99;100.00;97670.38;5134723;27;20027;-81
2023/12/15 05:25:56;;;;;;;20.27;11.52;;;;;;;7.94;100.00;97656.38;5134282;27;20060;-81
2023/12/15 05:28:22;;;;;;;22.90;12.18;;;;;;;7.99;100.00;97670.38;5117635;27;20034;-82
2023/12/15 05:30:47;;;;;;;29.02;14.40;;;;;;;8.06;100.00;97670.88;5134861;27;20433;-86
2023/12/15 05:33:13;;;;;;;29.08;13.60;;;;;;;8.02;100.00;97680.00;5117026;27;20083;-80
2023/12/15 05:35:39;;;;;;;32.50;15.90;;;;;;;7.98;100.00;97660.63;5117570;27;20033;-82
2023/12/15 05:38:04;;;;;;;29.75;15.45;;;;;;;7.97;100.00;97672.22;5134773;27;20087;-82
2023/12/15 05:40:30;;;;;;;24.38;11.68;;;;;;;7.94;100.00;97679.50;5117324;27;20026;-82
2023/12/15 05:42:55;;;;;;;24.58;11.15;;;;;;;7.90;100.00;97676.16;5117656;27;20090;-82
2023/12/15 05:45:21;;;;;;;22.67;11.90;;;;;;;7.90;100.00;97672.59;5116363;27;20027;-82
2023/12/15 05:47:47;;;;;;;23.10;12.68;;;;;;;7.94;100.00;97683.03;5111451;27;20027;-84
2023/12/15 05:50:13;;;;;;;130.18;67.72;;;;;;;8.01;100.00;97700.44;5115929;27;20030;-83
2023/12/15 05:52:39;;;;;;;38.25;18.67;;;;;;;7.99;100.00;97704.13;5134772;27;20022;-82
2023/12/15 05:55:05;;;;;;;32.67;16.40;;;;;;;7.95;100.00;97699.88;5134786;27;20027;-82
2023/12/15 05:57:30;;;;;;;26.30;14.48;;;;;;;7.94;100.00;97704.31;5134463;27;20490;-83
2023/12/15 05:59:56;;;;;;;33.13;14.52;;;;;;;7.99;100.00;97710.31;5134887;27;20054;-82
2023/12/15 06:02:21;;;;;;;27.65;14.15;;;;;;;7.82;100.00;97699.59;5117209;27;20518;-82
2023/12/15 06:04:47;;;;;;;22.45;12.02;;;;;;;7.85;100.00;97714.56;5152891;27;20033;-82
2023/12/15 06:07:12;;;;;;;27.77;12.68;;;;;;;7.86;100.00;97717.16;5117245;27;20494;-82
2023/12/15 06:09:38;;;;;;;29.75;12.93;;;;;;;7.85;100.00;97720.75;5117596;27;20038;-82
2023/12/15 06:12:04;;;;;;;31.35;13.60;;;;;;;7.85;100.00;97725.22;5118431;27;20026;-83
2023/12/15 06:14:30;;;;;;;32.53;14.48;;;;;;;7.80;100.00;97729.91;5117448;27;20018;-83
2023/12/15 06:16:55;;;;;;;27.60;13.75;;;;;;;7.71;100.00;97728.56;5134853;27;20478;-81
2023/12/15 06:19:21;;;;;;;24.30;12.10;;;;;;;7.69;100.00;97725.09;5117738;27;20558;-82
2023/12/15 06:21:47;;;;;;;29.45;13.70;;;;;;;7.73;100.00;97742.66;5106848;28;20023;-82
2023/12/15 06:24:12;;;;;;;27.25;12.63;;;;;;;7.70;100.00;97726.81;5112184;27;20026;-82
2023/12/15 06:26:38;;;;;;;27.15;13.68;;;;;;;7.72;100.00;97724.94;5110261;27;20110;-82
2023/12/15 06:29:03;;;;;;;23.55;11.80;;;;;;;7.68;100.00;97734.03;5122129;28;20028;-82
2023/12/15 06:31:29;;;;;;;27.73;13.05;;;;;;;7.66;100.00;97735.88;5097013;28;20034;-83
2023/12/15 06:33:55;;;;;;;31.13;14.93;;;;;;;7.63;100.00;97736.88;5096981;28;20015;-82
2023/12/15 06:36:21;;;;;;;33.17;14.73;;;;;;;7.61;100.00;97729.91;5114003;28;20091;-82
2023/12/15 06:38:46;;;;;;;24.77;11.48;;;;;;;7.60;100.00;97731.72;5100878;27;20015;-82
2023/12/15 06:41:12;;;;;;;16.20;9.00;;;;;;;7.53;100.00;97748.06;5100417;27;20516;-81
2023/12/15 06:43:41;;;;;;;19.42;10.43;;;;;;;7.49;100.00;97743.81;5100232;27;20039;-82
2023/12/15 06:46:07;;;;;;;24.38;11.73;;;;;;;7.40;100.00;97750.41;5100417;27;20030;-81
2023/12/15 06:48:33;;;;;;;22.70;11.50;;;;;;;7.43;100.00;97749.41;5100421;27;20027;-81
2023/12/15 06:50:59;;;;;;;24.23;11.27;;;;;;;7.45;100.00;97755.50;5100379;27;20047;-81
2023/12/15 06:53:25;;;;;;;18.80;9.63;;;;;;;7.48;100.00;97760.69;5100516;27;20103;-81
2023/12/15 06:55:50;;;;;;;16.38;9.10;;;;;;;7.48;100.00;97766.00;5117095;27;20037;-81
2023/12/15 06:58:16;;;;;;;19.35;9.90;;;;;;;7.56;100.00;97771.88;5117296;27;20030;-80
2023/12/15 07:00:42;;;;;;;17.60;9.50;;;;;;;7.54;100.00;97765.72;5119809;27;20035;-81
2023/12/15 07:03:08;;;;;;;26.60;12.10;;;;;;;7.59;100.00;97771.72;5117075;27;20031;-82
2023/12/15 07:05:34;;;;;;;27.13;11.90;;;;;;;7.52;100.00;97765.81;5107726;27;20436;-82
2023/12/15 07:08:01;;;;;;;29.77;13.57;;;;;;;7.61;100.00;97780.50;5120666;27;20023;-83
2023/12/15 07:10:26;;;;;;;21.63;10.10;;;;;;;7.56;100.00;97794.03;5137676;27;20082;-80
2023/12/15 07:12:52;;;;;;;29.70;13.65;;;;;;;7.53;100.00;97785.31;5120341;27;20026;-81
2023/12/15 07:15:17;;;;;;;23.05;11.48;;;;;;;7.59;100.00;97793.88;5120693;27;20034;-81
2023/12/15 07:17:43;;;;;;;21.15;10.68;;;;;;;7.56;100.00;97787.84;5120369;27;20029;-81
2023/12/15 07:20:09;;;;;;;29.02;13.38;;;;;;;7.53;100.00;97787.97;5137748;27;20489;-82
2023/12/15 07:22:35;;;;;;;27.38;12.60;;;;;;;7.60;100.00;97792.06;5120042;27;20019;-82
2023/12/15 07:25:01;;;;;;;24.98;12.45;;;;;;;7.51;100.00;97797.81;5137684;27;20030;-81
2023/12/15 07:27:26;;;;;;;22.65;11.75;;;;;;;7.48;100.00;97795.28;5120177;27;20031;-81
2023/12/15 07:29:52;;;;;;;18.30;7.95;;;;;;;7.41;100.00;97804.50;5137198;27;20447;-82
2023/12/15 07:32:18;;;;;;;19.63;9.05;;;;;;;7.35;100.00;97791.47;5109772;28;20429;-81
2023/12/15 07:34:44;;;;;;;18.95;9.82;;;;;;;7.43;100.00;97813.28;5118904;27;20031;-82
2023/12/15 07:37:10;;;;;;;15.65;9.30;;;;;;;7.40;100.00;97824.94;5120106;27;20027;-82
2023/12/15 07:39:35;;;;;;;21.15;10.23;;;;;;;7.41;100.00;97815.16;5120265;27;20029;-82
2023/12/15 07:42:01;;;;;;;17.75;10.30;;;;;;;7.48;100.00;97819.25;5120074;27;20026;-83
2023/12/15 07:44:26;;;;;;;22.27;10.95;;;;;;;7.54;100.00;97816.31;5119973;27;20034;-81
2023/12/15 07:46:55;;;;;;;20.33;10.88;;;;;;;7.52;100.00;97818.19;5120038;27;20033;-81
2023/12/15 07:49:24;;;;;;;21.83;12.40;;;;;;;7.51;100.00;97825.28;5137612;27;20577;-84
2023/12/15 07:51:51;;;;;;;26.08;12.13;;;;;;;7.44;100.00;97821.22;5120015;27;20091;-83
2023/12/15 07:54:18;;;;;;;20.42;11.32;;;;;;;7.49;100.00;97826.31;5137385;27;20189;-82
2023/12/15 07:56:44;;;;;;;18.50;8.32;;;;;;;7.43;100.00;97829.25;5120187;27;20030;-83
2023/12/15 07:59:10;;;;;;;15.77;9.35;;;;;;;7.43;100.00;97829.25;5137425;27;20037;-83
2023/12/15 08:01:36;;;;;;;19.30;9.85;;;;;;;7.44;100.00;97844.28;5119702;27;20029;-82
2023/12/15 08:04:01;;;;;;;11.95;6.75;;;;;;;7.45;100.00;97846.00;5112487;27;20035;-82
2023/12/15 08:06:27;;;;;;;13.50;7.15;;;;;;;7.26;100.00;97847.75;5119494;27;20046;-82
2023/12/15 08:08:53;;;;;;;16.33;7.75;;;;;;;7.21;100.00;97844.41;5119514;27;20110;-82
2023/12/15 08:11:19;;;;;;;16.73;8.18;;;;;;;7.20;100.00;97848.03;5120291;27;20146;-84
2023/12/15 08:13:45;;;;;;;15.95;8.18;;;;;;;7.19;100.00;97859.59;5119872;27;20022;-82
2023/12/15 08:16:11;;;;;;;16.73;8.07;;;;;;;7.13;100.00;97873.16;5119485;27;20059;-82
2023/12/15 08:18:37;;;;;;;18.48;9.15;;;;;;;7.08;100.00;97873.34;5119666;27;20045;-82
2023/12/15 08:21:03;;;;;;;23.70;9.82;;;;;;;7.09;100.00;97873.28;5119440;27;20543;-82
2023/12/15 08:23:31;;;;;;;21.30;9.35;;;;;;;7.25;100.00;97883.28;5136207;27;20019;-82
2023/12/15 08:25:56;;;;;;;21.63;11.82;;;;;;;7.26;100.00;97885.00;5119644;27;20030;-84
2023/12/15 08:28:22;;;;;;;16.80;8.93;;;;;;;7.30;100.00;97894.56;5137205;27;20095;-82
2023/12/15 08:30:49;;;;;;;17.30;8.45;;;;;;;7.31;100.00;97899.84;5136830;27;20035;-82
2023/12/15 08:33:15;;;;;;;16.05;8.38;;;;;;;7.33;100.00;97905.06;5119141;27;20022;-84
2023/12/15 08:35:41;;;;;;;20.85;8.90;;;;;;;7.34;100.00;97905.03;5136277;27;20080;-82
2023/12/15 08:38:07;;;;;;;29.83;11.85;;;;;;;7.31;100.00;97913.16;5118780;27;20515;-83
2023/12/15 08:40:32;;;;;;;24.25;11.75;;;;;;;7.30;100.00;97918.50;5118765;27;20029;-82
2023/12/15 08:42:58;;;;;;;36.28;12.73;;;;;;;7.26;100.00;97924.91;5118587;27;20026;-82
2023/12/15 08:45:23;;;;;;;23.30;10.82;;;;;;;7.33;100.00;97929.03;5118712;27;20079;-82
2023/12/15 08:47:49;;;;;;;14.05;7.55;;;;;;;7.25;100.00;97932.03;5119038;27;20029;-82
2023/12/15 08:50:15;;;;;;;13.30;7.45;;;;;;;7.19;100.00;97932.28;5118643;27;20018;-82
2023/12/15 08:52:41;;;;;;;18.40;8.65;;;;;;;7.17;100.00;97926.16;5118416;27;20023;-82
2023/12/15 08:55:07;;;;;;;19.77;9.40;;;;;;;7.16;100.00;97926.22;5119141;27;20037;-82
2023/12/15 08:57:32;;;;;;;36.35;16.67;;;;;;;7.19;100.00;97931.41;5136725;27;20097;-82
2023/12/15 08:59:58;;;;;;;14.73;8.23;;;;;;;7.17;100.00;97927.97;5117605;27;20538;-83
2023/12/15 09:02:25;;;;;;;17.83;8.00;;;;;;;7.07;100.00;97933.66;5118614;27;20582;-84
2023/12/15 09:04:54;;;;;;;19.17;8.25;;;;;;;6.97;100.00;97921.69;5119095;27;20033;-82
2023/12/15 09:07:19;;;;;;;23.00;8.43;;;;;;;6.91;100.00;97911.31;5118264;27;20508;-82
2023/12/15 09:09:46;;;;;;;24.75;11.65;;;;;;;7.04;100.00;97925.78;5135678;27;20479;-82
2023/12/15 09:12:12;;;;;;;20.50;11.48;;;;;;;7.13;100.00;97927.22;5118250;27;20095;-83
2023/12/15 09:14:40;;;;;;;20.88;9.75;;;;;;;7.17;100.00;97917.34;5118469;27;20080;-83
2023/12/15 09:17:11;;;;;;;21.90;10.80;;;;;;;7.23;100.00;97927.72;5135717;27;20029;-83
2023/12/15 09:19:38;;;;;;;17.65;8.45;;;;;;;7.13;100.00;97916.59;5118640;27;20094;-83
2023/12/15 09:22:05;;;;;;;22.55;9.20;;;;;;;7.08;100.00;97919.44;5135372;27;20030;-83
2023/12/15 09:24:30;;;;;;;23.25;10.55;;;;;;;7.11;100.00;97925.56;5118374;27;20026;-82
2023/12/15 09:26:56;;;;;;;22.48;10.43;;;;;;;7.11;100.00;97917.59;5118234;27;20382;-83
2023/12/15 09:29:21;;;;;;;18.40;8.90;;;;;;;7.15;100.00;97920.03;5118475;27;20022;-83
2023/12/15 09:31:47;;;;;;;23.58;11.32;;;;;;;7.12;100.00;97906.00;5118132;27;20137;-83
2023/12/15 09:34:13;;;;;;;17.40;7.50;;;;;;;7.00;100.00;97899.41;5118217;27;20486;-82
2023/12/15 09:36:39;;;;;;;12.43;7.13;;;;;;;7.06;100.00;97917.78;5118384;27;20029;-83
2023/12/15 09:39:04;;;;;;;13.05;7.28;;;;;;;7.06;100.00;97913.31;5117948;27;20490;-83
2023/12/15 09:41:30;;;;;;;12.00;7.05;;;;;;;7.06;100.00;97905.34;5117851;27;20458;-84
2023/12/15 09:43:55;;;;;;;12.35;6.95;;;;;;;7.08;100.00;97908.78;5135381;27;20601;-84
2023/12/15 09:46:21;;;;;;;12.27;7.18;;;;;;;7.06;100.00;97915.13;5117842;27;20027;-82
2023/12/15 09:48:49;;;;;;;18.80;9.15;;;;;;;7.03;100.00;97916.13;5117654;27;20158;-86
2023/12/15 09:51:25;;;;;;;17.17;8.98;;;;;;;7.05;100.00;97924.88;5117588;27;20027;-88
2023/12/15 09:53:51;;;;;;;18.35;9.20;;;;;;;7.15;100.00;97933.34;5117755;27;20079;-83
2023/12/15 09:56:18;;;;;;;14.07;8.05;;;;;;;7.13;100.00;97932.56;5117108;27;20030;-83
2023/12/15 09:58:44;;;;;;;17.40;8.38;;;;;;;7.08;100.00;97934.53;5117480;27;20109;-83
2023/12/15 10:01:12;;;;;;;22.52;10.85;;;;;;;6.94;100.00;97932.44;5117806;27;20054;-83
2023/12/15 10:03:39;;;;;;;18.17;8.20;;;;;;;6.91;100.00;97945.00;5117752;27;20497;-83
2023/12/15 10:06:05;;;;;;;14.57;8.27;;;;;;;6.87;100.00;97941.59;5117376;27;20055;-83
2023/12/15 10:08:41;;;;;;;17.52;8.52;;;;;;;6.90;100.00;97951.25;5117419;27;20106;-84
2023/12/15 10:11:07;;;;;;;19.67;9.07;;;;;;;6.93;100.00;97959.97;5113019;27;20118;-83
2023/12/15 10:13:33;;;;;;;16.45;8.50;;;;;;;6.97;100.00;97964.22;5118250;27;20098;-84
2023/12/15 10:15:58;;;;;;;14.75;7.80;;;;;;;7.02;100.00;97951.59;5101129;27;20031;-84
2023/12/15 10:18:24;;;;;;;17.73;9.10;;;;;;;6.96;100.00;97956.31;5101361;27;20026;-83
2023/12/15 10:20:49;;;;;;;16.98;9.27;;;;;;;7.09;100.00;97969.03;5101250;27;20037;-83
2023/12/15 10:23:15;;;;;;;76.85;41.42;;;;;;;7.04;100.00;97967.50;5100798;27;20513;-82
2023/12/15 10:25:48;;;;;;;21.15;9.75;;;;;;;6.90;100.00;97968.06;5101271;27;20019;-83
2023/12/15 10:28:15;;;;;;;15.30;7.68;;;;;;;6.86;100.00;97961.13;5101810;27;20023;-82
2023/12/15 10:30:41;;;;;;;12.50;7.15;;;;;;;6.90;100.00;97972.50;5101195;27;20548;-82
2023/12/15 10:33:07;;;;;;;14.05;7.40;;;;;;;6.88;100.00;97969.06;5118708;27;20106;-82
2023/12/15 10:35:33;;;;;;;13.95;7.95;;;;;;;6.74;100.00;97977.56;5101482;27;20023;-82
2023/12/15 10:37:58;;;;;;;17.08;8.85;;;;;;;6.68;100.00;97967.19;5101033;27;20031;-83
2023/12/15 10:40:25;;;;;;;15.73;8.75;;;;;;;6.65;100.00;97982.38;5100587;27;20023;-82
2023/12/15 10:42:51;;;;;;;17.63;9.05;;;;;;;6.73;100.00;97986.50;5100682;27;20035;-82
2023/12/15 10:45:17;;;;;;;17.25;7.50;;;;;;;6.75;100.00;97997.06;5101276;27;20062;-83
2023/12/15 10:47:43;;;;;;;16.33;8.30;;;;;;;6.61;100.00;97980.78;5100880;27;20065;-83
2023/12/15 10:50:09;;;;;;;17.45;7.57;;;;;;;6.57;100.00;97989.81;5100902;27;20402;-82
2023/12/15 10:52:39;;;;;;;14.30;7.45;;;;;;;6.63;100.00;97989.56;5100708;27;20035;-81
2023/12/15 10:55:06;;;;;;;12.73;6.78;;;;;;;6.64;100.00;97994.84;5100622;27;20023;-83
2023/12/15 10:57:32;;;;;;;17.38;7.97;;;;;;;6.74;100.00;97996.19;5117641;27;20138;-82
2023/12/15 10:59:59;;;;;;;17.52;9.02;;;;;;;6.79;100.00;97985.38;5100350;27;20062;-81
2023/12/15 11:02:27;;;;;;;15.00;7.93;;;;;;;6.78;100.00;97994.28;5100715;27;20023;-84
2023/12/15 11:04:55;;;;;;;15.20;7.47;;;;;;;6.75;100.00;97997.91;5115353;27;20498;-84
2023/12/15 11:07:21;;;;;;;15.48;7.88;;;;;;;6.72;100.00;97987.41;5119499;27;20026;-81
2023/12/15 11:09:47;;;;;;;14.45;7.82;;;;;;;6.86;100.00;98003.66;5107383;27;20478;-83
2023/12/15 11:12:29;;;;;;;13.82;7.10;;;;;;;6.86;100.00;98006.31;5100713;27;20119;-82
2023/12/15 11:15:02;;;;;;;25.27;10.63;;;;;;;6.77;100.00;98004.03;5117298;27;20338;-83